Glendive, MT (59330)

6:44 PM MDT on July 28, 2016 (GMT -0600)
heights | | Change Station

Elev 2077 ft 47.12 °N, 104.71 °W | Updated 13 minutes ago

Scattered Clouds
Scattered Clouds
79.5 °F
Feels Like 80 °F
N
4.7
Wind Variable Wind from ESE

Today
High -- | Low -- °F
--% Chance of Precip.
Yesterday
High -- | Low -- °F
Precip. -- in
Pressure 30.08 in
Visibility 10.0 miles
Clouds Few 4300 ft
Scattered Clouds 5500 ft
Heat Index 80 °F
Dew Point 58 °F
Humidity 47%
Rainfall --
Snow Depth Not available.
5:33 AM 8:36 PM
Waning Crescent, 27% visible
METAR KGDV 282356Z AUTO 08010KT 10SM FEW043 SCT055 23/14 A3012 RMK AO2 SLP186 T02330144 10250 20217 56006 TSNO
Pressure 30.08 in
Visibility 10.0 miles
Clouds Few 4300 ft
Scattered Clouds 5500 ft
Heat Index 80 °F
Dew Point 58 °F
Humidity 47%
Rainfall --
Snow Depth Not available.
5:33 AM 8:36 PM
Waning Crescent, 27% visible
METAR KGDV 282356Z AUTO 08010KT 10SM FEW043 SCT055 23/14 A3012 RMK AO2 SLP186 T02330144 10250 20217 56006 TSNO

10-Day Weather Forecast

Almanac

Astronomy

Jul. 28, 2016 Rise Set
Actual Time
Civil Twilight
Nautical Twilight
Astronomical Twilight
Moon
Length of Visible Light
Length of Day
Tomorrow will be .
, % of the Moon is Illuminated

Today's Extremes

State Highs State Lows

Community

WunderPhotos

Upload Photos

1,928,240 photos uploaded!

WunderBlog® & News

Nearby

Air Quality

  Air Quality AQ Index Pollutant
Not available.

Snow Depth

Station Depth Elevation

Earthquake Activity

City Distance Mag. Time & Date
Minimum magnitude displayed is 2.5.

Coastal Water Temperatures

Place Temperature

Stations

Nearby Weather Stations

Station Location Temp. Windchill Dew Point Humidity Wind Precip. Elev Updated Type
                   

Watches & Warnings

There are currently no watches in effect.